Impacts METAR Board
IDs:

KSTL - St Louis/Lambert Int, MO, US

Updated at: 2200 UTC 23 May 2018
Potential Impact None Slight Moderate High
Time 23/10Z 23/11Z 23/12Z 23/13Z 23/14Z 23/15Z 23/16Z 23/17Z 23/18Z 23/19Z 23/20Z 23/21Z 23/22Z
Temp67 66 68 71 74 77 79 81 83 84 85 85 85
Dewpt61 61 62 62 62 62 63 64 64 65 64 63 64
Altim30.10 30.12 30.14 30.15 30.17 30.16 30.17 30.17 30.16 30.14 30.12 30.11 30.10
VIS10 10 10 10 10 10 10 10 10 10 10 10 10
CIG-- -- -- -- -- -- -- -- -- -- -- -- --
CoverFEWSCTFEWFEWFEWFEWSCTSCTSCTSCTSCTSCTSCT
FltCatVFRVFRVFRVFRVFRVFRVFRVFRVFRVFRVFRVFRVFR
WX--------------------------
WDir70130100100120901300120809015070
WSpd5 6 4 7 8 6 7 0 7 8 6 4 8
WGst-- -- -- -- -- -- -- -- -- -- -- -- --
Raw hourly METARs
KSTL 230951Z 07005KT 10SM FEW250 19/16 A3010 RMK AO2 SLP182 T01940161
KSTL 231051Z 13006KT 10SM FEW120 SCT250 19/16 A3012 RMK AO2 SLP187 ACC N T01890161
KSTL 231151Z 10004KT 10SM FEW120 FEW250 20/17 A3014 RMK AO2 SLP194 ACC N T02000167 10228 20189 53016
KSTL 231251Z 10007KT 10SM FEW120 FEW250 22/17 A3015 RMK AO2 SLP199 ACC N T02170167
KSTL 231351Z 12008KT 10SM FEW250 23/17 A3017 RMK AO2 SLP203 T02330167
KSTL 231451Z 09006KT 10SM FEW250 25/17 A3016 RMK AO2 SLP203 T02500167 51009
KSTL 231551Z 13007KT 10SM SCT250 26/17 A3017 RMK AO2 SLP204 T02610172
KSTL 231651Z 00000KT 10SM SCT250 27/18 A3017 RMK AO2 SLP205 T02720178
KSTL 231751Z 12007KT 10SM FEW045 SCT250 28/18 A3016 RMK AO2 SLP201 T02830178 10283 20200 58002
KSTL 231851Z 08008KT 10SM FEW044 SCT250 29/18 A3014 RMK AO2 SLP194 T02890183
KSTL 231951Z 09006KT 10SM FEW046 SCT250 29/18 A3012 RMK AO2 SLP189 T02940178
KSTL 232051Z 15004KT 10SM FEW050 SCT250 29/17 A3011 RMK AO2 SLP184 T02940172 56017
KSTL 232151Z 07008KT 10SM SCT050 SCT250 29/18 A3010 RMK AO2 SLP182 T02940178



Page loaded:  22:14 UTC  |   03:14 PM Pacific  |   04:14 PM Mountain  |   05:14 PM Central  |   06:14 PM Eastern

 

ADVISORIES

FORECASTS

FORECASTS

OBSERVATIONS

USER TOOLS

ABOUT US